sensor_id;sensor_type;location;lat;lon;timestamp;temperature;humidity
3846;DHT22;1938;50.812;7.738;2024-03-08T00:01:09;1.20;1.00
3846;DHT22;1938;50.812;7.738;2024-03-08T00:03:35;1.20;1.00
3846;DHT22;1938;50.812;7.738;2024-03-08T00:06:00;1.10;1.00
3846;DHT22;1938;50.812;7.738;2024-03-08T00:08:26;1.10;1.00
3846;DHT22;1938;50.812;7.738;2024-03-08T00:10:51;1.10;1.00
3846;DHT22;1938;50.812;7.738;2024-03-08T00:13:17;1.10;1.00
3846;DHT22;1938;50.812;7.738;2024-03-08T00:15:42;1.00;1.00
3846;DHT22;1938;50.812;7.738;2024-03-08T00:18:08;1.00;1.00
3846;DHT22;1938;50.812;7.738;2024-03-08T00:20:34;1.00;1.00
3846;DHT22;1938;50.812;7.738;2024-03-08T00:22:59;1.00;1.00
3846;DHT22;1938;50.812;7.738;2024-03-08T00:25:25;0.90;1.00
3846;DHT22;1938;50.812;7.738;2024-03-08T00:27:51;0.90;1.00
3846;DHT22;1938;50.812;7.738;2024-03-08T00:30:22;0.80;10.30
3846;DHT22;1938;50.812;7.738;2024-03-08T00:32:50;0.90;15.50
3846;DHT22;1938;50.812;7.738;2024-03-08T00:35:16;0.80;15.70
3846;DHT22;1938;50.812;7.738;2024-03-08T00:37:42;0.90;25.50
3846;DHT22;1938;50.812;7.738;2024-03-08T00:40:08;0.80;22.10
3846;DHT22;1938;50.812;7.738;2024-03-08T00:42:34;0.80;27.50
3846;DHT22;1938;50.812;7.738;2024-03-08T00:45:00;0.90;31.20
3846;DHT22;1938;50.812;7.738;2024-03-08T00:47:26;0.80;27.80
3846;DHT22;1938;50.812;7.738;2024-03-08T00:49:52;0.90;43.90
3846;DHT22;1938;50.812;7.738;2024-03-08T00:52:18;0.80;45.30
3846;DHT22;1938;50.812;7.738;2024-03-08T00:54:44;0.80;59.90
3846;DHT22;1938;50.812;7.738;2024-03-08T00:57:10;0.90;40.30
3846;DHT22;1938;50.812;7.738;2024-03-08T00:59:38;0.90;99.90
3846;DHT22;1938;50.812;7.738;2024-03-08T01:02:03;1.00;20.80
3846;DHT22;1938;50.812;7.738;2024-03-08T01:04:29;0.90;22.70
3846;DHT22;1938;50.812;7.738;2024-03-08T01:06:58;0.80;40.20
3846;DHT22;1938;50.812;7.738;2024-03-08T01:09:25;1.00;27.30
3846;DHT22;1938;50.812;7.738;2024-03-08T01:11:56;0.90;35.80
3846;DHT22;1938;50.812;7.738;2024-03-08T01:14:22;0.90;29.50
3846;DHT22;1938;50.812;7.738;2024-03-08T01:16:48;0.80;40.30
3846;DHT22;1938;50.812;7.738;2024-03-08T01:19:14;0.80;48.10
3846;DHT22;1938;50.812;7.738;2024-03-08T01:21:41;0.80;68.40
3846;DHT22;1938;50.812;7.738;2024-03-08T01:24:06;1.00;99.90
3846;DHT22;1938;50.812;7.738;2024-03-08T01:26:32;0.90;36.60
3846;DHT22;1938;50.812;7.738;2024-03-08T01:29:00;0.80;55.60
3846;DHT22;1938;50.812;7.738;2024-03-08T01:31:25;0.70;77.00
3846;DHT22;1938;50.812;7.738;2024-03-08T01:33:51;0.70;91.20
3846;DHT22;1938;50.812;7.738;2024-03-08T01:36:16;0.60;99.90
3846;DHT22;1938;50.812;7.738;2024-03-08T01:38:44;0.70;95.80
3846;DHT22;1938;50.812;7.738;2024-03-08T01:41:10;0.70;97.60
3846;DHT22;1938;50.812;7.738;2024-03-08T01:43:35;0.70;99.90
3846;DHT22;1938;50.812;7.738;2024-03-08T01:46:01;0.60;99.90
3846;DHT22;1938;50.812;7.738;2024-03-08T01:48:28;0.90;99.90
3846;DHT22;1938;50.812;7.738;2024-03-08T01:50:56;0.70;93.90
3846;DHT22;1938;50.812;7.738;2024-03-08T01:53:24;0.60;99.90
3846;DHT22;1938;50.812;7.738;2024-03-08T01:55:50;0.50;99.90
3846;DHT22;1938;50.812;7.738;2024-03-08T01:58:17;0.60;99.90
3846;DHT22;1938;50.812;7.738;2024-03-08T02:00:46;0.60;99.90
3846;DHT22;1938;50.812;7.738;2024-03-08T02:03:17;0.60;99.90
3846;DHT22;1938;50.812;7.738;2024-03-08T02:05:43;0.60;99.90
3846;DHT22;1938;50.812;7.738;2024-03-08T02:08:09;0.50;99.90
3846;DHT22;1938;50.812;7.738;2024-03-08T02:10:44;0.50;99.90
3846;DHT22;1938;50.812;7.738;2024-03-08T02:13:10;0.30;99.90
3846;DHT22;1938;50.812;7.738;2024-03-08T02:18:21;0.40;99.90
3846;DHT22;1938;50.812;7.738;2024-03-08T02:20:53;0.40;99.90
3846;DHT22;1938;50.812;7.738;2024-03-08T02:23:20;0.40;99.90
3846;DHT22;1938;50.812;7.738;2024-03-08T02:25:46;0.30;99.90
3846;DHT22;1938;50.812;7.738;2024-03-08T02:28:12;0.40;99.90
3846;DHT22;1938;50.812;7.738;2024-03-08T02:30:38;0.30;99.90
3846;DHT22;1938;50.812;7.738;2024-03-08T02:33:05;0.40;99.90
3846;DHT22;1938;50.812;7.738;2024-03-08T02:35:31;0.30;99.90
3846;DHT22;1938;50.812;7.738;2024-03-08T02:37:56;0.30;99.90
3846;DHT22;1938;50.812;7.738;2024-03-08T02:40:22;0.30;99.90
3846;DHT22;1938;50.812;7.738;2024-03-08T02:42:47;0.30;99.90
3846;DHT22;1938;50.812;7.738;2024-03-08T02:45:13;0.20;99.90
3846;DHT22;1938;50.812;7.738;2024-03-08T02:47:39;0.20;99.90
3846;DHT22;1938;50.812;7.738;2024-03-08T02:50:05;0.20;99.90
3846;DHT22;1938;50.812;7.738;2024-03-08T02:52:33;0.10;99.90
3846;DHT22;1938;50.812;7.738;2024-03-08T02:54:59;0.20;99.90
3846;DHT22;1938;50.812;7.738;2024-03-08T02:57:24;0.10;99.90
3846;DHT22;1938;50.812;7.738;2024-03-08T02:59:50;0.10;99.90
3846;DHT22;1938;50.812;7.738;2024-03-08T03:02:16;0.10;99.90
3846;DHT22;1938;50.812;7.738;2024-03-08T03:04:42;-0.10;17.60
3846;DHT22;1938;50.812;7.738;2024-03-08T03:07:08;-0.30;48.20
3846;DHT22;1938;50.812;7.738;2024-03-08T03:09:34;-0.70;99.90
3846;DHT22;1938;50.812;7.738;2024-03-08T03:12:00;-1.20;48.20
3846;DHT22;1938;50.812;7.738;2024-03-08T03:14:25;-1.20;99.90
3846;DHT22;1938;50.812;7.738;2024-03-08T03:16:54;-1.30;99.90
3846;DHT22;1938;50.812;7.738;2024-03-08T03:19:20;-1.50;99.90
3846;DHT22;1938;50.812;7.738;2024-03-08T03:21:46;-1.50;99.90
3846;DHT22;1938;50.812;7.738;2024-03-08T03:24:12;-1.00;99.90
3846;DHT22;1938;50.812;7.738;2024-03-08T03:26:41;-0.50;99.90
3846;DHT22;1938;50.812;7.738;2024-03-08T03:29:09;-0.10;4.00
3846;DHT22;1938;50.812;7.738;2024-03-08T03:31:36;0.00;1.00
3846;DHT22;1938;50.812;7.738;2024-03-08T03:34:02;0.00;1.00
3846;DHT22;1938;50.812;7.738;2024-03-08T03:36:30;0.10;99.90
3846;DHT22;1938;50.812;7.738;2024-03-08T03:38:55;0.00;99.90
3846;DHT22;1938;50.812;7.738;2024-03-08T03:41:38;0.00;99.90
3846;DHT22;1938;50.812;7.738;2024-03-08T03:44:05;0.00;99.90
3846;DHT22;1938;50.812;7.738;2024-03-08T03:46:34;0.00;99.90
3846;DHT22;1938;50.812;7.738;2024-03-08T03:48:59;0.00;99.90
3846;DHT22;1938;50.812;7.738;2024-03-08T03:51:25;-0.10;1.00
3846;DHT22;1938;50.812;7.738;2024-03-08T03:53:51;-0.10;1.00
3846;DHT22;1938;50.812;7.738;2024-03-08T03:56:18;-0.10;1.00
3846;DHT22;1938;50.812;7.738;2024-03-08T03:58:44;-0.10;1.00
3846;DHT22;1938;50.812;7.738;2024-03-08T04:01:09;-0.10;1.00
3846;DHT22;1938;50.812;7.738;2024-03-08T04:03:35;-0.10;1.00
3846;DHT22;1938;50.812;7.738;2024-03-08T04:06:01;-0.10;1.00
3846;DHT22;1938;50.812;7.738;2024-03-08T04:08:27;-0.10;1.00
3846;DHT22;1938;50.812;7.738;2024-03-08T04:10:53;0.00;1.00
3846;DHT22;1938;50.812;7.738;2024-03-08T04:13:18;0.00;1.00
3846;DHT22;1938;50.812;7.738;2024-03-08T04:15:45;0.00;1.00
3846;DHT22;1938;50.812;7.738;2024-03-08T04:18:13;-0.10;1.00
3846;DHT22;1938;50.812;7.738;2024-03-08T04:20:39;-0.10;1.00
3846;DHT22;1938;50.812;7.738;2024-03-08T04:23:05;0.00;1.00
3846;DHT22;1938;50.812;7.738;2024-03-08T04:25:31;-0.10;1.00
3846;DHT22;1938;50.812;7.738;2024-03-08T04:27:57;-0.10;1.00
3846;DHT22;1938;50.812;7.738;2024-03-08T04:30:23;-0.10;1.00
3846;DHT22;1938;50.812;7.738;2024-03-08T04:32:49;-0.10;1.00
3846;DHT22;1938;50.812;7.738;2024-03-08T04:35:15;-0.20;1.00
3846;DHT22;1938;50.812;7.738;2024-03-08T04:37:41;-0.10;1.00
3846;DHT22;1938;50.812;7.738;2024-03-08T04:40:07;-0.10;1.00
3846;DHT22;1938;50.812;7.738;2024-03-08T04:42:33;-0.10;1.00
3846;DHT22;1938;50.812;7.738;2024-03-08T04:44:59;-0.20;1.00
3846;DHT22;1938;50.812;7.738;2024-03-08T04:47:24;-0.20;1.00
3846;DHT22;1938;50.812;7.738;2024-03-08T04:49:50;-0.20;1.00
3846;DHT22;1938;50.812;7.738;2024-03-08T04:52:16;-0.20;1.00
3846;DHT22;1938;50.812;7.738;2024-03-08T04:54:42;-0.20;1.00
3846;DHT22;1938;50.812;7.738;2024-03-08T04:57:08;-0.20;1.00
3846;DHT22;1938;50.812;7.738;2024-03-08T04:59:34;-0.20;1.00
3846;DHT22;1938;50.812;7.738;2024-03-08T05:01:59;-0.10;1.00
3846;DHT22;1938;50.812;7.738;2024-03-08T05:04:25;-0.10;1.00
3846;DHT22;1938;50.812;7.738;2024-03-08T05:06:50;-0.20;1.00
3846;DHT22;1938;50.812;7.738;2024-03-08T05:09:16;-0.10;1.00
3846;DHT22;1938;50.812;7.738;2024-03-08T05:11:43;-0.20;1.00
3846;DHT22;1938;50.812;7.738;2024-03-08T05:14:09;-0.10;1.00
3846;DHT22;1938;50.812;7.738;2024-03-08T05:16:35;-0.20;1.00
3846;DHT22;1938;50.812;7.738;2024-03-08T05:19:01;-0.20;1.00
3846;DHT22;1938;50.812;7.738;2024-03-08T05:21:27;-0.20;1.00
3846;DHT22;1938;50.812;7.738;2024-03-08T05:23:54;-0.10;1.00
3846;DHT22;1938;50.812;7.738;2024-03-08T05:26:20;-0.20;1.00
3846;DHT22;1938;50.812;7.738;2024-03-08T05:28:47;-0.10;1.00
3846;DHT22;1938;50.812;7.738;2024-03-08T05:31:23;-0.20;1.00
3846;DHT22;1938;50.812;7.738;2024-03-08T05:33:49;-0.20;1.00
3846;DHT22;1938;50.812;7.738;2024-03-08T05:36:15;-0.20;1.00
3846;DHT22;1938;50.812;7.738;2024-03-08T05:38:43;-0.10;1.00
3846;DHT22;1938;50.812;7.738;2024-03-08T05:41:09;-0.20;1.00
3846;DHT22;1938;50.812;7.738;2024-03-08T05:43:34;-0.20;1.00
3846;DHT22;1938;50.812;7.738;2024-03-08T05:46:00;-0.30;1.00
3846;DHT22;1938;50.812;7.738;2024-03-08T05:48:25;-0.20;1.00
3846;DHT22;1938;50.812;7.738;2024-03-08T05:50:51;-0.30;1.00
3846;DHT22;1938;50.812;7.738;2024-03-08T05:53:17;-0.30;1.00
3846;DHT22;1938;50.812;7.738;2024-03-08T05:55:42;-0.30;5.90
3846;DHT22;1938;50.812;7.738;2024-03-08T05:58:08;-0.40;9.10
3846;DHT22;1938;50.812;7.738;2024-03-08T06:00:34;-0.30;29.40
3846;DHT22;1938;50.812;7.738;2024-03-08T06:03:01;-0.30;93.70
3846;DHT22;1938;50.812;7.738;2024-03-08T06:05:28;-0.30;35.40
3846;DHT22;1938;50.812;7.738;2024-03-08T06:07:53;-0.30;11.00
3846;DHT22;1938;50.812;7.738;2024-03-08T06:10:19;-0.30;29.70
3846;DHT22;1938;50.812;7.738;2024-03-08T06:12:45;-0.10;99.90
3846;DHT22;1938;50.812;7.738;2024-03-08T06:15:11;-0.30;14.00
3846;DHT22;1938;50.812;7.738;2024-03-08T06:17:42;-0.30;25.50
3846;DHT22;1938;50.812;7.738;2024-03-08T06:20:08;-0.20;53.40
3846;DHT22;1938;50.812;7.738;2024-03-08T06:22:41;-0.20;51.60
3846;DHT22;1938;50.812;7.738;2024-03-08T06:25:10;-0.20;27.50
3846;DHT22;1938;50.812;7.738;2024-03-08T06:27:42;-0.10;33.20
3846;DHT22;1938;50.812;7.738;2024-03-08T06:30:09;0.00;3.50
3846;DHT22;1938;50.812;7.738;2024-03-08T06:32:37;0.10;1.00
3846;DHT22;1938;50.812;7.738;2024-03-08T06:35:06;0.10;1.00
3846;DHT22;1938;50.812;7.738;2024-03-08T06:37:33;0.20;1.00
3846;DHT22;1938;50.812;7.738;2024-03-08T06:39:58;0.30;1.00
3846;DHT22;1938;50.812;7.738;2024-03-08T06:42:24;0.30;1.00
3846;DHT22;1938;50.812;7.738;2024-03-08T06:44:49;0.40;1.00
3846;DHT22;1938;50.812;7.738;2024-03-08T06:47:15;0.50;1.00
3846;DHT22;1938;50.812;7.738;2024-03-08T06:49:42;0.50;1.00
3846;DHT22;1938;50.812;7.738;2024-03-08T06:52:09;0.60;1.00
3846;DHT22;1938;50.812;7.738;2024-03-08T06:54:35;0.60;99.90
3846;DHT22;1938;50.812;7.738;2024-03-08T06:57:04;0.70;99.90
3846;DHT22;1938;50.812;7.738;2024-03-08T06:59:33;0.80;99.90
3846;DHT22;1938;50.812;7.738;2024-03-08T07:02:01;0.80;99.90
3846;DHT22;1938;50.812;7.738;2024-03-08T07:04:27;0.90;99.90
3846;DHT22;1938;50.812;7.738;2024-03-08T07:06:55;1.00;99.90
3846;DHT22;1938;50.812;7.738;2024-03-08T07:09:21;1.10;99.90
3846;DHT22;1938;50.812;7.738;2024-03-08T07:11:46;1.20;99.90
3846;DHT22;1938;50.812;7.738;2024-03-08T07:14:12;1.20;99.90
3846;DHT22;1938;50.812;7.738;2024-03-08T07:16:40;1.30;99.90
3846;DHT22;1938;50.812;7.738;2024-03-08T07:19:07;1.50;99.90
3846;DHT22;1938;50.812;7.738;2024-03-08T07:21:32;1.50;99.90
3846;DHT22;1938;50.812;7.738;2024-03-08T07:23:58;1.50;99.90
3846;DHT22;1938;50.812;7.738;2024-03-08T07:26:26;1.60;88.40
3846;DHT22;1938;50.812;7.738;2024-03-08T07:28:51;1.60;79.20
3846;DHT22;1938;50.812;7.738;2024-03-08T07:31:17;1.60;84.50
3846;DHT22;1938;50.812;7.738;2024-03-08T07:33:52;1.70;99.90
3846;DHT22;1938;50.812;7.738;2024-03-08T07:36:19;1.90;72.80
3846;DHT22;1938;50.812;7.738;2024-03-08T07:38:44;1.90;8.60
3846;DHT22;1938;50.812;7.738;2024-03-08T07:41:12;1.90;20.50
3846;DHT22;1938;50.812;7.738;2024-03-08T07:43:38;2.00;10.00
3846;DHT22;1938;50.812;7.738;2024-03-08T07:46:04;2.20;1.00
3846;DHT22;1938;50.812;7.738;2024-03-08T07:48:29;2.20;1.00
3846;DHT22;1938;50.812;7.738;2024-03-08T07:50:56;2.40;1.00
3846;DHT22;1938;50.812;7.738;2024-03-08T07:53:22;2.60;1.00
3846;DHT22;1938;50.812;7.738;2024-03-08T07:55:49;2.70;1.00
3846;DHT22;1938;50.812;7.738;2024-03-08T07:58:15;3.50;1.00
3846;DHT22;1938;50.812;7.738;2024-03-08T08:00:41;4.40;99.90
3846;DHT22;1938;50.812;7.738;2024-03-08T08:03:08;5.20;99.90
3846;DHT22;1938;50.812;7.738;2024-03-08T08:05:34;5.30;99.90
3846;DHT22;1938;50.812;7.738;2024-03-08T08:08:04;5.80;99.90
3846;DHT22;1938;50.812;7.738;2024-03-08T08:10:32;6.30;90.90
3846;DHT22;1938;50.812;7.738;2024-03-08T08:12:58;6.30;44.10
3846;DHT22;1938;50.812;7.738;2024-03-08T08:15:24;7.10;36.50
3846;DHT22;1938;50.812;7.738;2024-03-08T08:17:49;6.00;20.00
3846;DHT22;1938;50.812;7.738;2024-03-08T08:20:15;5.00;45.00
3846;DHT22;1938;50.812;7.738;2024-03-08T08:22:41;5.00;92.40
3846;DHT22;1938;50.812;7.738;2024-03-08T08:25:08;4.70;99.90
3846;DHT22;1938;50.812;7.738;2024-03-08T08:27:34;5.00;99.90
3846;DHT22;1938;50.812;7.738;2024-03-08T08:30:02;4.80;99.90
3846;DHT22;1938;50.812;7.738;2024-03-08T08:32:34;4.60;99.90
3846;DHT22;1938;50.812;7.738;2024-03-08T08:35:00;4.70;99.90
3846;DHT22;1938;50.812;7.738;2024-03-08T08:37:26;6.00;99.90
3846;DHT22;1938;50.812;7.738;2024-03-08T08:39:51;6.00;39.40
3846;DHT22;1938;50.812;7.738;2024-03-08T08:42:18;5.50;38.40
3846;DHT22;1938;50.812;7.738;2024-03-08T08:44:43;5.50;65.00
3846;DHT22;1938;50.812;7.738;2024-03-08T08:47:09;5.20;49.40
3846;DHT22;1938;50.812;7.738;2024-03-08T08:49:34;5.20;48.10
3846;DHT22;1938;50.812;7.738;2024-03-08T08:52:00;5.20;51.00
3846;DHT22;1938;50.812;7.738;2024-03-08T08:54:26;5.50;47.40
3846;DHT22;1938;50.812;7.738;2024-03-08T08:56:53;5.90;37.70
3846;DHT22;1938;50.812;7.738;2024-03-08T08:59:19;6.30;54.70
3846;DHT22;1938;50.812;7.738;2024-03-08T09:01:45;6.30;21.00
3846;DHT22;1938;50.812;7.738;2024-03-08T09:04:15;6.30;15.60
3846;DHT22;1938;50.812;7.738;2024-03-08T09:06:41;5.80;8.80
3846;DHT22;1938;50.812;7.738;2024-03-08T09:09:07;6.00;25.70
3846;DHT22;1938;50.812;7.738;2024-03-08T09:11:34;5.70;24.70
3846;DHT22;1938;50.812;7.738;2024-03-08T09:14:00;5.60;28.80
3846;DHT22;1938;50.812;7.738;2024-03-08T09:16:27;5.30;35.20
3846;DHT22;1938;50.812;7.738;2024-03-08T09:18:52;5.50;58.00
3846;DHT22;1938;50.812;7.738;2024-03-08T09:21:18;5.80;58.20
3846;DHT22;1938;50.812;7.738;2024-03-08T09:23:43;5.50;38.80
3846;DHT22;1938;50.812;7.738;2024-03-08T09:26:10;5.50;55.40
3846;DHT22;1938;50.812;7.738;2024-03-08T09:28:37;5.60;54.20
3846;DHT22;1938;50.812;7.738;2024-03-08T09:31:04;5.50;43.60
3846;DHT22;1938;50.812;7.738;2024-03-08T09:33:30;5.70;54.20
3846;DHT22;1938;50.812;7.738;2024-03-08T09:35:56;6.00;41.10
3846;DHT22;1938;50.812;7.738;2024-03-08T09:38:25;6.30;35.40
3846;DHT22;1938;50.812;7.738;2024-03-08T09:40:51;6.00;13.10
3846;DHT22;1938;50.812;7.738;2024-03-08T09:43:17;6.10;37.20
3846;DHT22;1938;50.812;7.738;2024-03-08T09:45:45;6.30;16.30
3846;DHT22;1938;50.812;7.738;2024-03-08T09:48:12;6.00;17.30
3846;DHT22;1938;50.812;7.738;2024-03-08T09:50:42;6.10;13.30
3846;DHT22;1938;50.812;7.738;2024-03-08T09:53:08;6.00;2.60
3846;DHT22;1938;50.812;7.738;2024-03-08T09:55:38;6.30;21.80
3846;DHT22;1938;50.812;7.738;2024-03-08T09:58:08;6.60;17.80
3846;DHT22;1938;50.812;7.738;2024-03-08T10:00:53;6.90;2.30
3846;DHT22;1938;50.812;7.738;2024-03-08T10:03:19;7.00;1.00
3846;DHT22;1938;50.812;7.738;2024-03-08T10:05:45;6.70;1.00
3846;DHT22;1938;50.812;7.738;2024-03-08T10:08:12;6.80;1.00
3846;DHT22;1938;50.812;7.738;2024-03-08T10:10:38;6.80;1.00
3846;DHT22;1938;50.812;7.738;2024-03-08T10:13:08;6.80;1.00
3846;DHT22;1938;50.812;7.738;2024-03-08T10:15:34;6.70;1.00
3846;DHT22;1938;50.812;7.738;2024-03-08T10:18:00;6.70;1.00
3846;DHT22;1938;50.812;7.738;2024-03-08T10:20:29;7.10;1.00
3846;DHT22;1938;50.812;7.738;2024-03-08T10:23:01;7.30;1.00
3846;DHT22;1938;50.812;7.738;2024-03-08T10:25:29;7.50;1.00
3846;DHT22;1938;50.812;7.738;2024-03-08T10:27:56;7.70;1.00
3846;DHT22;1938;50.812;7.738;2024-03-08T10:30:21;7.90;1.00
3846;DHT22;1938;50.812;7.738;2024-03-08T10:32:47;7.80;1.00
3846;DHT22;1938;50.812;7.738;2024-03-08T10:35:13;8.00;1.00
3846;DHT22;1938;50.812;7.738;2024-03-08T10:37:50;8.00;1.00
3846;DHT22;1938;50.812;7.738;2024-03-08T10:40:24;8.10;1.00
3846;DHT22;1938;50.812;7.738;2024-03-08T10:42:55;8.30;1.00
3846;DHT22;1938;50.812;7.738;2024-03-08T10:48:08;8.00;1.00
3846;DHT22;1938;50.812;7.738;2024-03-08T10:50:35;8.20;1.00
3846;DHT22;1938;50.812;7.738;2024-03-08T10:53:02;8.30;1.00
3846;DHT22;1938;50.812;7.738;2024-03-08T10:55:29;8.60;1.00
3846;DHT22;1938;50.812;7.738;2024-03-08T10:57:56;8.60;1.00
3846;DHT22;1938;50.812;7.738;2024-03-08T11:00:22;8.40;1.00
3846;DHT22;1938;50.812;7.738;2024-03-08T11:02:56;8.40;1.00
3846;DHT22;1938;50.812;7.738;2024-03-08T11:05:32;8.00;1.00
3846;DHT22;1938;50.812;7.738;2024-03-08T11:08:01;8.00;1.00
3846;DHT22;1938;50.812;7.738;2024-03-08T11:10:28;8.00;1.00
3846;DHT22;1938;50.812;7.738;2024-03-08T11:12:54;8.10;1.00
3846;DHT22;1938;50.812;7.738;2024-03-08T11:15:20;8.30;1.00
3846;DHT22;1938;50.812;7.738;2024-03-08T11:17:47;8.60;1.00
3846;DHT22;1938;50.812;7.738;2024-03-08T11:20:18;8.90;1.00
3846;DHT22;1938;50.812;7.738;2024-03-08T11:22:51;8.90;1.00
3846;DHT22;1938;50.812;7.738;2024-03-08T11:25:39;8.80;1.00
3846;DHT22;1938;50.812;7.738;2024-03-08T11:28:20;8.80;1.00
3846;DHT22;1938;50.812;7.738;2024-03-08T11:33:35;8.60;1.00
3846;DHT22;1938;50.812;7.738;2024-03-08T11:38:41;8.40;1.00
3846;DHT22;1938;50.812;7.738;2024-03-08T11:41:09;8.50;1.00
3846;DHT22;1938;50.812;7.738;2024-03-08T11:43:38;8.40;1.00
3846;DHT22;1938;50.812;7.738;2024-03-08T11:46:12;8.40;1.00
3846;DHT22;1938;50.812;7.738;2024-03-08T11:48:42;8.30;1.00
3846;DHT22;1938;50.812;7.738;2024-03-08T11:51:16;8.30;1.00
3846;DHT22;1938;50.812;7.738;2024-03-08T11:53:44;7.90;1.00
3846;DHT22;1938;50.812;7.738;2024-03-08T11:56:11;8.10;1.00
3846;DHT22;1938;50.812;7.738;2024-03-08T11:58:38;8.10;1.00
3846;DHT22;1938;50.812;7.738;2024-03-08T12:01:10;8.10;1.00
3846;DHT22;1938;50.812;7.738;2024-03-08T12:03:40;8.30;1.00
3846;DHT22;1938;50.812;7.738;2024-03-08T12:06:10;8.20;1.00
3846;DHT22;1938;50.812;7.738;2024-03-08T12:08:36;8.10;1.00
3846;DHT22;1938;50.812;7.738;2024-03-08T12:11:05;7.90;1.00
3846;DHT22;1938;50.812;7.738;2024-03-08T12:13:32;8.00;1.00
3846;DHT22;1938;50.812;7.738;2024-03-08T12:15:59;8.10;1.00
3846;DHT22;1938;50.812;7.738;2024-03-08T12:18:26;8.30;1.00
3846;DHT22;1938;50.812;7.738;2024-03-08T12:21:07;8.50;1.00
3846;DHT22;1938;50.812;7.738;2024-03-08T12:23:33;8.20;1.00
3846;DHT22;1938;50.812;7.738;2024-03-08T12:26:13;8.00;1.00
3846;DHT22;1938;50.812;7.738;2024-03-08T12:28:40;8.00;1.00
3846;DHT22;1938;50.812;7.738;2024-03-08T12:31:07;8.00;1.00
3846;DHT22;1938;50.812;7.738;2024-03-08T12:33:56;8.10;1.00
3846;DHT22;1938;50.812;7.738;2024-03-08T12:36:24;8.10;1.00
3846;DHT22;1938;50.812;7.738;2024-03-08T12:38:50;8.20;1.00
3846;DHT22;1938;50.812;7.738;2024-03-08T12:41:17;8.20;1.00
3846;DHT22;1938;50.812;7.738;2024-03-08T12:43:44;8.10;1.00
3846;DHT22;1938;50.812;7.738;2024-03-08T12:46:15;7.90;1.00
3846;DHT22;1938;50.812;7.738;2024-03-08T12:48:40;8.00;1.00
3846;DHT22;1938;50.812;7.738;2024-03-08T12:51:07;7.90;1.00
3846;DHT22;1938;50.812;7.738;2024-03-08T12:53:33;8.20;1.00
3846;DHT22;1938;50.812;7.738;2024-03-08T12:55:58;8.30;1.00
3846;DHT22;1938;50.812;7.738;2024-03-08T12:58:24;8.20;1.00
3846;DHT22;1938;50.812;7.738;2024-03-08T13:00:51;8.00;1.00
3846;DHT22;1938;50.812;7.738;2024-03-08T13:03:17;8.20;1.00
3846;DHT22;1938;50.812;7.738;2024-03-08T13:05:42;8.30;1.00
3846;DHT22;1938;50.812;7.738;2024-03-08T13:08:08;8.30;1.00
3846;DHT22;1938;50.812;7.738;2024-03-08T13:10:39;8.40;1.00
3846;DHT22;1938;50.812;7.738;2024-03-08T13:13:04;8.40;1.00
3846;DHT22;1938;50.812;7.738;2024-03-08T13:15:30;8.50;1.00
3846;DHT22;1938;50.812;7.738;2024-03-08T13:17:56;8.60;1.00
3846;DHT22;1938;50.812;7.738;2024-03-08T13:20:25;8.40;1.00
3846;DHT22;1938;50.812;7.738;2024-03-08T13:22:54;8.30;1.00
3846;DHT22;1938;50.812;7.738;2024-03-08T13:25:19;8.30;1.00
3846;DHT22;1938;50.812;7.738;2024-03-08T13:27:45;8.50;1.00
3846;DHT22;1938;50.812;7.738;2024-03-08T13:30:12;8.60;1.00
3846;DHT22;1938;50.812;7.738;2024-03-08T13:32:42;8.70;1.00
3846;DHT22;1938;50.812;7.738;2024-03-08T13:35:13;8.70;1.00
3846;DHT22;1938;50.812;7.738;2024-03-08T13:37:42;8.70;1.00
3846;DHT22;1938;50.812;7.738;2024-03-08T13:40:09;8.60;1.00
3846;DHT22;1938;50.812;7.738;2024-03-08T13:42:42;8.70;1.00
3846;DHT22;1938;50.812;7.738;2024-03-08T13:45:11;8.60;1.00
3846;DHT22;1938;50.812;7.738;2024-03-08T13:47:43;8.50;1.00
3846;DHT22;1938;50.812;7.738;2024-03-08T13:50:10;8.60;1.00
3846;DHT22;1938;50.812;7.738;2024-03-08T13:52:41;8.70;1.00
3846;DHT22;1938;50.812;7.738;2024-03-08T13:55:07;8.60;1.00
3846;DHT22;1938;50.812;7.738;2024-03-08T13:57:33;8.70;1.00
3846;DHT22;1938;50.812;7.738;2024-03-08T13:59:59;8.80;1.00
3846;DHT22;1938;50.812;7.738;2024-03-08T14:02:25;8.70;1.00
3846;DHT22;1938;50.812;7.738;2024-03-08T14:04:54;8.90;1.00
3846;DHT22;1938;50.812;7.738;2024-03-08T14:07:20;8.90;1.00
3846;DHT22;1938;50.812;7.738;2024-03-08T14:09:46;8.90;1.00
3846;DHT22;1938;50.812;7.738;2024-03-08T14:12:12;9.00;1.00
3846;DHT22;1938;50.812;7.738;2024-03-08T14:14:40;8.90;1.00
3846;DHT22;1938;50.812;7.738;2024-03-08T14:17:06;9.00;1.00
3846;DHT22;1938;50.812;7.738;2024-03-08T14:19:32;9.00;1.00
3846;DHT22;1938;50.812;7.738;2024-03-08T14:21:59;8.90;1.00
3846;DHT22;1938;50.812;7.738;2024-03-08T14:24:25;8.90;1.00
3846;DHT22;1938;50.812;7.738;2024-03-08T14:26:51;8.90;1.00
3846;DHT22;1938;50.812;7.738;2024-03-08T14:29:17;8.90;1.00
3846;DHT22;1938;50.812;7.738;2024-03-08T14:31:44;9.00;1.00
3846;DHT22;1938;50.812;7.738;2024-03-08T14:34:10;9.00;1.00
3846;DHT22;1938;50.812;7.738;2024-03-08T14:36:36;9.00;1.00
3846;DHT22;1938;50.812;7.738;2024-03-08T14:39:03;9.00;1.00
3846;DHT22;1938;50.812;7.738;2024-03-08T14:41:28;9.00;1.00
3846;DHT22;1938;50.812;7.738;2024-03-08T14:43:55;9.10;1.00
3846;DHT22;1938;50.812;7.738;2024-03-08T14:46:22;9.00;1.00
3846;DHT22;1938;50.812;7.738;2024-03-08T14:48:50;9.00;1.00
3846;DHT22;1938;50.812;7.738;2024-03-08T14:51:19;9.10;1.00
3846;DHT22;1938;50.812;7.738;2024-03-08T14:53:48;9.00;1.00
3846;DHT22;1938;50.812;7.738;2024-03-08T14:56:15;9.00;1.00
3846;DHT22;1938;50.812;7.738;2024-03-08T14:58:48;8.90;1.00
3846;DHT22;1938;50.812;7.738;2024-03-08T15:01:17;8.90;1.00
3846;DHT22;1938;50.812;7.738;2024-03-08T15:03:47;8.90;1.00
3846;DHT22;1938;50.812;7.738;2024-03-08T15:06:13;8.90;1.00
3846;DHT22;1938;50.812;7.738;2024-03-08T15:08:41;8.90;1.00
3846;DHT22;1938;50.812;7.738;2024-03-08T15:11:06;8.90;1.00
3846;DHT22;1938;50.812;7.738;2024-03-08T15:13:33;8.90;1.00
3846;DHT22;1938;50.812;7.738;2024-03-08T15:16:06;8.90;1.00
3846;DHT22;1938;50.812;7.738;2024-03-08T15:18:33;8.90;1.00
3846;DHT22;1938;50.812;7.738;2024-03-08T15:21:06;8.90;1.00
3846;DHT22;1938;50.812;7.738;2024-03-08T15:23:35;9.00;1.00
3846;DHT22;1938;50.812;7.738;2024-03-08T15:26:02;9.00;1.00
3846;DHT22;1938;50.812;7.738;2024-03-08T15:28:29;9.00;1.00
3846;DHT22;1938;50.812;7.738;2024-03-08T15:31:06;9.00;1.00
3846;DHT22;1938;50.812;7.738;2024-03-08T15:33:35;9.00;1.00
3846;DHT22;1938;50.812;7.738;2024-03-08T15:36:14;9.10;1.00
3846;DHT22;1938;50.812;7.738;2024-03-08T15:38:43;9.10;1.00
3846;DHT22;1938;50.812;7.738;2024-03-08T15:41:14;9.00;1.00
3846;DHT22;1938;50.812;7.738;2024-03-08T15:43:41;9.00;1.00
3846;DHT22;1938;50.812;7.738;2024-03-08T15:46:07;9.00;1.00
3846;DHT22;1938;50.812;7.738;2024-03-08T15:48:34;9.00;1.00
3846;DHT22;1938;50.812;7.738;2024-03-08T15:51:06;9.00;1.00
3846;DHT22;1938;50.812;7.738;2024-03-08T15:53:35;8.90;99.90
3846;DHT22;1938;50.812;7.738;2024-03-08T15:56:02;8.90;99.90
3846;DHT22;1938;50.812;7.738;2024-03-08T15:58:28;8.80;99.90
3846;DHT22;1938;50.812;7.738;2024-03-08T16:00:58;8.80;99.90
3846;DHT22;1938;50.812;7.738;2024-03-08T16:03:25;8.80;99.90
3846;DHT22;1938;50.812;7.738;2024-03-08T16:05:50;8.70;99.90
3846;DHT22;1938;50.812;7.738;2024-03-08T16:08:18;8.70;99.90
3846;DHT22;1938;50.812;7.738;2024-03-08T16:10:47;8.70;99.90
3846;DHT22;1938;50.812;7.738;2024-03-08T16:13:17;8.70;99.90
3846;DHT22;1938;50.812;7.738;2024-03-08T16:15:47;8.70;99.90
3846;DHT22;1938;50.812;7.738;2024-03-08T16:18:13;8.60;99.90
3846;DHT22;1938;50.812;7.738;2024-03-08T16:20:39;8.50;99.90
3846;DHT22;1938;50.812;7.738;2024-03-08T16:23:05;8.50;99.90
3846;DHT22;1938;50.812;7.738;2024-03-08T16:25:31;8.50;99.90
3846;DHT22;1938;50.812;7.738;2024-03-08T16:27:57;8.60;99.90
3846;DHT22;1938;50.812;7.738;2024-03-08T16:30:22;8.60;99.90
3846;DHT22;1938;50.812;7.738;2024-03-08T16:32:49;8.60;99.90
3846;DHT22;1938;50.812;7.738;2024-03-08T16:35:20;8.60;99.90